Time;durP1;ratioP1;P1;durP2;ratioP2;P2;SDS_P1;SDS_P2;PMS_P1;PMS_P2;Temp;Humidity;BMP_temperature;BMP_pressure;BME280_temperature;BME280_humidity;BME280_pressure;Samples;Min_cycle;Max_cycle;Signal;HPM_P1;HPM_P2
2021/06/14 00:02:09;;;;;;;4.43;3.10;;;;;;;;;;5071241;28;20072;-66
2021/06/14 00:04:36;;;;;;;3.80;2.60;;;;;;;;;;5053101;28;20084;-66
2021/06/14 00:07:03;;;;;;;5.40;3.28;;;;;;;;;;5071531;28;20076;-66
2021/06/14 00:09:32;;;;;;;4.00;2.60;;;;;;;;;;5053423;28;20075;-66
2021/06/14 00:12:01;;;;;;;4.47;2.42;;;;;;;;;;5037005;28;20083;-66
2021/06/14 00:14:27;;;;;;;5.30;2.85;;;;;;;;;;5036897;28;20045;-66
2021/06/14 00:16:54;;;;;;;4.50;2.85;;;;;;;;;;5040177;28;20061;-66
2021/06/14 00:19:21;;;;;;;7.13;3.15;;;;;;;;;;5050963;28;20056;-66
2021/06/14 00:21:48;;;;;;;3.63;3.10;;;;;;;;;;5033266;28;20085;-66
2021/06/14 00:24:14;;;;;;;6.72;3.53;;;;;;;;;;5051276;28;20081;-66
2021/06/14 00:26:41;;;;;;;5.43;3.15;;;;;;;;;;5050809;28;20078;-66
2021/06/14 00:29:08;;;;;;;3.83;3.25;;;;;;;;;;5051110;28;20072;-66
2021/06/14 00:31:34;;;;;;;4.78;3.17;;;;;;;;;;5033374;28;20053;-66
2021/06/14 00:34:01;;;;;;;4.90;3.88;;;;;;;;;;5057370;28;20048;-66
2021/06/14 00:36:27;;;;;;;4.63;3.15;;;;;;;;;;5070744;28;20053;-67
2021/06/14 00:38:54;;;;;;;5.30;2.88;;;;;;;;;;5071962;28;20127;-67
2021/06/14 00:41:20;;;;;;;5.72;3.40;;;;;;;;;;5056809;28;20090;-66
2021/06/14 00:43:47;;;;;;;6.07;3.00;;;;;;;;;;5056511;28;20499;-66
2021/06/14 00:46:14;;;;;;;5.05;3.30;;;;;;;;;;5074348;28;20091;-66
2021/06/14 00:48:40;;;;;;;3.35;3.05;;;;;;;;;;5074423;28;20418;-66
2021/06/14 00:51:08;;;;;;;4.72;3.53;;;;;;;;;;5074329;28;20535;-66
2021/06/14 00:53:37;;;;;;;5.35;3.05;;;;;;;;;;5041386;28;20053;-66
2021/06/14 00:56:10;;;;;;;5.88;3.05;;;;;;;;;;5056785;28;20088;-66
2021/06/14 00:58:37;;;;;;;6.10;3.50;;;;;;;;;;5074114;28;20048;-66
2021/06/14 01:01:04;;;;;;;7.03;3.72;;;;;;;;;;5056626;28;20080;-66
2021/06/14 01:03:31;;;;;;;5.97;3.78;;;;;;;;;;5039521;28;20052;-67
2021/06/14 01:06:00;;;;;;;5.13;3.75;;;;;;;;;;5039810;28;20049;-67
2021/06/14 01:08:27;;;;;;;4.72;3.22;;;;;;;;;;5074131;28;20088;-66
2021/06/14 01:10:53;;;;;;;5.85;3.30;;;;;;;;;;5056361;28;20482;-66
2021/06/14 01:13:47;;;;;;;7.32;3.42;;;;;;;;;;5039501;28;20080;-66
2021/06/14 01:16:35;;;;;;;7.32;3.88;;;;;;;;;;5055937;28;20067;-67
2021/06/14 01:19:53;;;;;;;4.07;3.60;;;;;;;;;;5073809;28;20044;-67
2021/06/14 01:22:22;;;;;;;7.53;3.15;;;;;;;;;;5031808;28;20076;-67
2021/06/14 01:24:55;;;;;;;8.07;3.67;;;;;;;;;;5073286;28;20076;-67
2021/06/14 01:27:35;;;;;;;4.90;3.65;;;;;;;;;;5061966;28;20165;-66
2021/06/14 01:30:10;;;;;;;4.50;3.67;;;;;;;;;;5036478;28;20044;-67
2021/06/14 01:32:38;;;;;;;6.00;3.45;;;;;;;;;;5020059;28;20076;-67
2021/06/14 01:35:07;;;;;;;5.65;3.28;;;;;;;;;;5035576;28;20088;-66
2021/06/14 01:37:35;;;;;;;5.80;3.65;;;;;;;;;;5019388;28;20095;-67
2021/06/14 01:40:02;;;;;;;5.85;3.40;;;;;;;;;;5019470;28;20460;-67
2021/06/14 01:42:29;;;;;;;6.00;3.75;;;;;;;;;;5035516;28;20088;-66
2021/06/14 01:44:55;;;;;;;7.03;3.67;;;;;;;;;;5040930;28;20098;-67
2021/06/14 01:47:22;;;;;;;6.13;4.13;;;;;;;;;;5038849;28;20076;-66
2021/06/14 01:49:49;;;;;;;6.28;3.80;;;;;;;;;;5035034;28;20511;-67
2021/06/14 01:52:16;;;;;;;6.75;3.55;;;;;;;;;;5053102;28;20059;-66
2021/06/14 01:54:42;;;;;;;4.90;3.13;;;;;;;;;;5037736;28;20049;-67
2021/06/14 01:57:09;;;;;;;3.85;3.25;;;;;;;;;;5038873;28;20084;-67
2021/06/14 01:59:37;;;;;;;4.07;3.45;;;;;;;;;;5038658;28;20128;-67
2021/06/14 02:02:05;;;;;;;4.00;3.40;;;;;;;;;;5043170;28;20080;-67
2021/06/14 02:04:33;;;;;;;5.60;3.35;;;;;;;;;;5047983;28;20053;-66
2021/06/14 02:06:59;;;;;;;4.40;3.10;;;;;;;;;;5038770;28;20076;-66
2021/06/14 02:09:26;;;;;;;6.22;3.47;;;;;;;;;;5055158;28;20111;-66
2021/06/14 02:11:57;;;;;;;5.88;3.90;;;;;;;;;;5055073;28;20099;-66
2021/06/14 02:14:25;;;;;;;3.70;3.25;;;;;;;;;;5021535;28;20080;-66
2021/06/14 02:16:53;;;;;;;4.35;3.60;;;;;;;;;;5038417;28;20048;-66
2021/06/14 02:19:20;;;;;;;5.13;3.40;;;;;;;;;;5054961;28;20045;-66
2021/06/14 02:21:47;;;;;;;4.47;3.20;;;;;;;;;;5038536;28;20482;-66
2021/06/14 02:24:14;;;;;;;6.07;3.70;;;;;;;;;;5054655;28;20087;-66
2021/06/14 02:26:43;;;;;;;6.30;3.88;;;;;;;;;;5072348;28;20084;-66
2021/06/14 02:29:09;;;;;;;6.28;3.92;;;;;;;;;;5054917;28;20076;-66
2021/06/14 02:31:37;;;;;;;4.72;3.90;;;;;;;;;;5054601;28;20507;-66
2021/06/14 02:34:05;;;;;;;6.30;3.90;;;;;;;;;;5054657;28;20079;-66
2021/06/14 02:36:32;;;;;;;5.90;3.88;;;;;;;;;;5054522;28;20048;-66
2021/06/14 02:39:01;;;;;;;7.40;3.90;;;;;;;;;;5054508;28;20091;-66
2021/06/14 02:41:28;;;;;;;8.57;4.32;;;;;;;;;;5038316;28;20102;-66
2021/06/14 02:43:54;;;;;;;6.68;4.00;;;;;;;;;;5030930;28;20084;-66
2021/06/14 02:46:21;;;;;;;7.28;3.92;;;;;;;;;;5034682;28;20079;-66
2021/06/14 02:48:49;;;;;;;8.20;4.22;;;;;;;;;;5018446;28;20099;-66
2021/06/14 02:51:17;;;;;;;4.90;3.78;;;;;;;;;;5053012;28;20045;-66
2021/06/14 02:53:45;;;;;;;6.65;3.97;;;;;;;;;;5023953;28;20515;-66
2021/06/14 02:56:14;;;;;;;7.03;4.10;;;;;;;;;;5055162;28;20048;-66
2021/06/14 02:58:43;;;;;;;8.90;4.07;;;;;;;;;;5054427;28;20497;-66
2021/06/14 03:01:10;;;;;;;8.23;4.05;;;;;;;;;;5037771;28;20087;-66
2021/06/14 03:03:40;;;;;;;7.10;5.40;;;;;;;;;;5034359;28;20052;-66
2021/06/14 03:06:08;;;;;;;7.13;3.90;;;;;;;;;;5019086;28;20049;-66
2021/06/14 03:08:35;;;;;;;5.05;3.83;;;;;;;;;;5035097;28;20083;-66
2021/06/14 03:11:02;;;;;;;4.47;3.92;;;;;;;;;;5034908;28;20045;-66
2021/06/14 03:13:29;;;;;;;6.07;4.22;;;;;;;;;;5052311;28;20049;-66
2021/06/14 03:15:56;;;;;;;4.90;4.00;;;;;;;;;;5034645;28;20053;-66
2021/06/14 03:18:24;;;;;;;10.13;4.20;;;;;;;;;;5034104;28;20049;-66
2021/06/14 03:20:54;;;;;;;7.43;3.95;;;;;;;;;;5017985;28;20052;-66
2021/06/14 03:23:21;;;;;;;6.70;4.53;;;;;;;;;;5036845;28;20500;-66
2021/06/14 03:25:48;;;;;;;6.43;3.83;;;;;;;;;;5054138;28;20069;-66
2021/06/14 03:28:15;;;;;;;7.85;4.05;;;;;;;;;;5025791;28;20102;-66
2021/06/14 03:30:42;;;;;;;10.05;4.22;;;;;;;;;;5057165;28;20144;-68
2021/06/14 03:33:09;;;;;;;7.45;4.15;;;;;;;;;;5041740;28;20056;-67
2021/06/14 03:35:36;;;;;;;7.50;4.07;;;;;;;;;;5044907;28;20049;-66
2021/06/14 03:38:03;;;;;;;10.82;5.55;;;;;;;;;;5024222;28;20053;-67
2021/06/14 03:40:30;;;;;;;7.47;3.45;;;;;;;;;;5057214;28;20060;-66
2021/06/14 03:43:01;;;;;;;8.85;4.03;;;;;;;;;;5057298;28;20053;-66
2021/06/14 03:45:28;;;;;;;5.28;3.72;;;;;;;;;;5074546;28;20064;-66
2021/06/14 03:47:55;;;;;;;5.57;3.83;;;;;;;;;;5074912;28;20049;-68
2021/06/14 03:50:22;;;;;;;6.05;4.00;;;;;;;;;;5057359;28;20037;-66
2021/06/14 03:52:49;;;;;;;6.53;4.25;;;;;;;;;;5056523;28;20052;-67
2021/06/14 03:55:16;;;;;;;5.53;3.95;;;;;;;;;;5057772;28;20044;-66
2021/06/14 03:57:43;;;;;;;7.03;4.50;;;;;;;;;;5074775;28;20049;-66
2021/06/14 04:00:11;;;;;;;6.13;4.15;;;;;;;;;;5074876;28;20041;-67
2021/06/14 04:02:38;;;;;;;5.38;4.40;;;;;;;;;;5074549;28;20049;-66
2021/06/14 04:05:06;;;;;;;5.70;3.80;;;;;;;;;;5057716;28;20116;-67
2021/06/14 04:07:32;;;;;;;5.65;4.22;;;;;;;;;;5057722;28;20037;-67
2021/06/14 04:09:59;;;;;;;7.88;4.88;;;;;;;;;;5056899;28;20041;-66
2021/06/14 04:12:27;;;;;;;5.72;4.07;;;;;;;;;;5057486;28;20079;-65
2021/06/14 04:14:54;;;;;;;6.55;4.65;;;;;;;;;;5061062;28;20048;-67
2021/06/14 04:17:21;;;;;;;6.03;4.57;;;;;;;;;;5077954;28;20053;-65
2021/06/14 04:19:52;;;;;;;4.82;3.92;;;;;;;;;;5061432;28;20059;-66
2021/06/14 04:22:19;;;;;;;6.35;4.43;;;;;;;;;;5060454;28;20048;-65
2021/06/14 04:24:45;;;;;;;6.95;4.40;;;;;;;;;;5078202;28;20040;-66
2021/06/14 04:27:12;;;;;;;6.03;4.03;;;;;;;;;;5077429;28;20057;-67
2021/06/14 04:29:38;;;;;;;5.45;4.03;;;;;;;;;;5078146;28;20033;-65
2021/06/14 04:32:05;;;;;;;8.48;4.15;;;;;;;;;;5071870;28;20435;-68
2021/06/14 04:34:32;;;;;;;7.32;4.18;;;;;;;;;;5058891;28;20049;-67
2021/06/14 04:36:59;;;;;;;9.18;3.95;;;;;;;;;;5076901;28;20040;-66
2021/06/14 04:39:26;;;;;;;8.27;3.97;;;;;;;;;;5076693;28;20079;-67
2021/06/14 04:41:52;;;;;;;6.45;3.97;;;;;;;;;;5043024;28;20049;-68
2021/06/14 04:44:19;;;;;;;5.43;3.90;;;;;;;;;;5077550;28;20060;-65
2021/06/14 04:46:45;;;;;;;9.05;4.13;;;;;;;;;;5082950;28;20070;-68
2021/06/14 04:49:12;;;;;;;4.72;4.28;;;;;;;;;;5064200;28;20075;-67
2021/06/14 04:51:38;;;;;;;7.50;3.80;;;;;;;;;;5077557;28;20049;-65
2021/06/14 04:54:05;;;;;;;4.63;3.70;;;;;;;;;;5060010;28;20049;-68
2021/06/14 04:56:31;;;;;;;9.10;4.15;;;;;;;;;;5076691;28;20523;-68
2021/06/14 04:58:58;;;;;;;5.78;3.78;;;;;;;;;;5043263;28;20056;-68
2021/06/14 05:01:24;;;;;;;4.82;3.60;;;;;;;;;;5075994;28;20052;-66
2021/06/14 05:03:51;;;;;;;6.40;3.70;;;;;;;;;;5076625;28;20128;-67
2021/06/14 05:06:18;;;;;;;6.50;3.83;;;;;;;;;;5076349;28;20049;-65
2021/06/14 05:08:44;;;;;;;4.88;3.38;;;;;;;;;;5075363;28;20053;-65
2021/06/14 05:11:11;;;;;;;6.53;4.07;;;;;;;;;;5058008;28;20041;-65
2021/06/14 05:13:37;;;;;;;5.43;3.42;;;;;;;;;;5058400;28;20045;-66
2021/06/14 05:16:04;;;;;;;9.38;3.92;;;;;;;;;;5074839;28;20033;-67
2021/06/14 05:18:31;;;;;;;4.03;3.55;;;;;;;;;;5074005;28;20079;-65
2021/06/14 05:20:57;;;;;;;7.60;3.45;;;;;;;;;;5056843;28;20045;-65
2021/06/14 05:23:24;;;;;;;9.15;3.75;;;;;;;;;;5075775;28;20586;-66
2021/06/14 05:25:50;;;;;;;4.28;3.55;;;;;;;;;;5089706;28;20063;-66
2021/06/14 05:28:17;;;;;;;7.70;3.30;;;;;;;;;;5096666;28;20036;-66
2021/06/14 05:30:44;;;;;;;7.72;3.38;;;;;;;;;;5079265;28;20044;-66
2021/06/14 05:33:10;;;;;;;7.43;3.85;;;;;;;;;;5061924;28;20029;-66
2021/06/14 05:35:37;;;;;;;6.53;3.38;;;;;;;;;;5084781;28;20079;-66
2021/06/14 05:38:03;;;;;;;4.68;3.10;;;;;;;;;;5084339;28;20045;-67
2021/06/14 05:40:31;;;;;;;9.65;3.20;;;;;;;;;;5053248;28;20400;-66
2021/06/14 05:42:58;;;;;;;6.93;3.40;;;;;;;;;;5053446;28;20573;-70
2021/06/14 05:45:25;;;;;;;5.53;3.40;;;;;;;;;;5053511;28;20098;-67
2021/06/14 05:47:52;;;;;;;6.05;3.10;;;;;;;;;;5055887;28;20063;-67
2021/06/14 05:50:18;;;;;;;4.68;3.13;;;;;;;;;;5033057;28;20087;-67
2021/06/14 05:52:45;;;;;;;6.47;2.67;;;;;;;;;;5050919;28;20511;-66
2021/06/14 05:55:12;;;;;;;4.10;2.90;;;;;;;;;;5051118;28;20049;-66
2021/06/14 05:57:38;;;;;;;3.83;2.95;;;;;;;;;;5033423;28;20467;-68
2021/06/14 06:00:09;;;;;;;5.55;3.10;;;;;;;;;;5090314;22;20072;-66
2021/06/14 06:02:35;;;;;;;10.48;2.67;;;;;;;;;;5071151;28;20080;-64
2021/06/14 06:05:03;;;;;;;3.25;2.50;;;;;;;;;;5073105;28;20083;-65
2021/06/14 06:07:30;;;;;;;6.82;3.08;;;;;;;;;;5072924;28;20086;-65
2021/06/14 06:09:56;;;;;;;6.53;2.80;;;;;;;;;;5071893;28;20041;-66
2021/06/14 06:12:23;;;;;;;5.38;2.45;;;;;;;;;;5072190;28;20605;-65
2021/06/14 06:14:50;;;;;;;5.15;3.33;;;;;;;;;;5072799;28;20048;-65
2021/06/14 06:17:16;;;;;;;5.97;2.42;;;;;;;;;;5072898;28;20102;-65
2021/06/14 06:19:43;;;;;;;5.60;2.60;;;;;;;;;;5072193;28;20087;-66
2021/06/14 06:22:10;;;;;;;9.32;2.63;;;;;;;;;;5072245;28;20079;-66
2021/06/14 06:24:37;;;;;;;4.18;2.60;;;;;;;;;;5072324;28;20418;-65
2021/06/14 06:27:03;;;;;;;5.07;2.42;;;;;;;;;;5072924;28;20083;-66
2021/06/14 06:29:30;;;;;;;4.75;2.45;;;;;;;;;;5072012;28;20052;-65
2021/06/14 06:31:57;;;;;;;5.90;3.47;;;;;;;;;;5072401;28;20398;-66
2021/06/14 06:34:24;;;;;;;8.30;3.45;;;;;;;;;;5072309;28;20060;-65
2021/06/14 06:36:50;;;;;;;4.68;2.83;;;;;;;;;;5072567;28;20072;-65
2021/06/14 06:39:17;;;;;;;4.85;2.88;;;;;;;;;;5071929;28;20079;-66
2021/06/14 06:41:44;;;;;;;6.35;2.50;;;;;;;;;;5071944;28;20302;-66
2021/06/14 06:44:10;;;;;;;4.00;2.53;;;;;;;;;;5072147;28;20091;-65
2021/06/14 06:46:38;;;;;;;4.03;2.13;;;;;;;;;;5072031;28;20048;-66
2021/06/14 06:49:05;;;;;;;6.20;2.67;;;;;;;;;;5072046;28;20105;-66
2021/06/14 06:51:31;;;;;;;4.07;2.42;;;;;;;;;;5072131;28;20045;-66
2021/06/14 06:54:13;;;;;;;5.50;2.45;;;;;;;;;;5071981;28;20044;-66
2021/06/14 06:56:46;;;;;;;5.20;2.50;;;;;;;;;;5071918;28;20504;-65
2021/06/14 06:59:13;;;;;;;4.35;2.30;;;;;;;;;;5071545;28;20541;-65
2021/06/14 07:01:40;;;;;;;5.97;2.63;;;;;;;;;;5071694;28;20143;-65
2021/06/14 07:04:07;;;;;;;4.57;2.33;;;;;;;;;;5072058;28;20181;-65
2021/06/14 07:06:34;;;;;;;7.93;2.90;;;;;;;;;;5071912;28;20051;-66
2021/06/14 07:09:01;;;;;;;9.00;3.28;;;;;;;;;;5071555;28;20111;-65
2021/06/14 07:11:28;;;;;;;4.18;2.50;;;;;;;;;;5071871;28;20407;-66
2021/06/14 07:13:55;;;;;;;4.70;2.33;;;;;;;;;;5071504;28;20503;-66
2021/06/14 07:16:23;;;;;;;3.88;2.05;;;;;;;;;;5071786;28;20049;-66
2021/06/14 07:18:50;;;;;;;5.53;2.22;;;;;;;;;;5071631;28;20495;-66
2021/06/14 07:21:17;;;;;;;5.03;2.60;;;;;;;;;;5070889;28;20483;-66
2021/06/14 07:23:44;;;;;;;5.68;2.50;;;;;;;;;;5071414;28;20478;-66
2021/06/14 07:26:10;;;;;;;5.03;2.72;;;;;;;;;;5071918;28;20059;-66
2021/06/14 07:28:39;;;;;;;6.50;2.83;;;;;;;;;;5071673;28;20053;-67
2021/06/14 07:31:06;;;;;;;3.05;2.13;;;;;;;;;;5071775;28;20072;-66
2021/06/14 07:33:35;;;;;;;4.15;2.25;;;;;;;;;;5071154;28;20052;-66
2021/06/14 07:36:03;;;;;;;4.18;2.45;;;;;;;;;;5071626;28;20495;-65
2021/06/14 07:38:30;;;;;;;4.03;2.35;;;;;;;;;;5071557;28;20565;-66
2021/06/14 07:40:57;;;;;;;4.82;2.30;;;;;;;;;;5071475;28;20459;-66
2021/06/14 07:43:24;;;;;;;3.85;2.13;;;;;;;;;;5071431;28;20078;-66
2021/06/14 07:45:51;;;;;;;5.93;2.45;;;;;;;;;;5071235;28;20091;-66
2021/06/14 07:48:18;;;;;;;5.45;2.17;;;;;;;;;;5073222;28;20107;-67
2021/06/14 07:50:46;;;;;;;4.30;2.28;;;;;;;;;;5075579;28;20092;-66
2021/06/14 07:53:12;;;;;;;4.65;2.55;;;;;;;;;;5075487;28;20052;-67
2021/06/14 07:55:40;;;;;;;6.05;2.60;;;;;;;;;;5075332;28;20084;-67
2021/06/14 07:58:06;;;;;;;4.40;2.33;;;;;;;;;;5055381;28;20487;-66
2021/06/14 08:00:34;;;;;;;6.30;2.30;;;;;;;;;;5055027;28;20045;-67
2021/06/14 08:03:00;;;;;;;4.78;2.42;;;;;;;;;;5055212;28;20135;-66
2021/06/14 08:05:27;;;;;;;5.57;2.05;;;;;;;;;;5055256;28;20048;-66
2021/06/14 08:08:09;;;;;;;3.03;2.17;;;;;;;;;;5057553;28;20482;-66
2021/06/14 08:10:36;;;;;;;6.15;2.45;;;;;;;;;;5075325;28;20087;-66
2021/06/14 08:13:03;;;;;;;4.88;2.03;;;;;;;;;;5075108;28;20511;-66
2021/06/14 08:15:31;;;;;;;4.45;2.80;;;;;;;;;;5074999;28;20471;-65
2021/06/14 08:25:51;;;;;;;2.78;1.90;;;;;;;;;;5075040;28;20055;-66
2021/06/14 08:28:18;;;;;;;3.95;2.53;;;;;;;;;;5074865;28;20084;-66
2021/06/14 08:30:45;;;;;;;4.13;2.05;;;;;;;;;;5074693;28;20080;-66
2021/06/14 08:33:11;;;;;;;2.88;2.25;;;;;;;;;;5074292;28;20087;-67
2021/06/14 08:35:38;;;;;;;2.88;2.05;;;;;;;;;;5074534;28;20503;-66
2021/06/14 08:38:04;;;;;;;6.55;2.80;;;;;;;;;;5074697;28;20087;-67
2021/06/14 08:40:35;;;;;;;5.75;2.30;;;;;;;;;;5074425;28;20080;-67
2021/06/14 08:43:04;;;;;;;5.05;2.45;;;;;;;;;;5074286;28;20465;-66
2021/06/14 08:45:33;;;;;;;4.10;2.40;;;;;;;;;;5074536;28;20189;-66
2021/06/14 08:48:01;;;;;;;6.40;2.03;;;;;;;;;;5074596;28;20052;-68
2021/06/14 08:50:28;;;;;;;5.82;2.58;;;;;;;;;;5072880;28;20495;-67
2021/06/14 08:52:55;;;;;;;5.35;2.20;;;;;;;;;;5074089;28;20052;-65
2021/06/14 08:55:22;;;;;;;4.53;2.40;;;;;;;;;;5074350;28;20597;-66
2021/06/14 08:57:50;;;;;;;2.65;1.85;;;;;;;;;;5074216;28;20102;-67
2021/06/14 09:00:23;;;;;;;3.63;2.85;;;;;;;;;;5072840;28;20052;-66
2021/06/14 09:02:50;;;;;;;3.97;2.20;;;;;;;;;;5074537;28;20143;-66
2021/06/14 09:05:20;;;;;;;6.82;2.35;;;;;;;;;;5073956;28;20144;-66
2021/06/14 09:07:51;;;;;;;5.38;1.90;;;;;;;;;;5074042;28;20465;-66
2021/06/14 09:10:38;;;;;;;4.32;2.10;;;;;;;;;;5074067;28;20458;-66
2021/06/14 09:13:17;;;;;;;4.28;2.05;;;;;;;;;;5073955;28;20079;-66
2021/06/14 09:15:51;;;;;;;6.15;2.00;;;;;;;;;;5073526;28;20106;-66
2021/06/14 09:18:25;;;;;;;3.80;2.00;;;;;;;;;;5073922;28;20045;-66
2021/06/14 09:20:59;;;;;;;5.35;2.33;;;;;;;;;;5073511;28;20135;-66
2021/06/14 09:23:37;;;;;;;4.00;1.90;;;;;;;;;;5073363;28;20052;-65
2021/06/14 09:26:04;;;;;;;5.53;2.90;;;;;;;;;;5072897;28;20052;-66
2021/06/14 09:28:31;;;;;;;3.58;1.80;;;;;;;;;;5073134;28;20066;-66
2021/06/14 09:30:59;;;;;;;4.20;1.60;;;;;;;;;;5072241;28;20037;-66
2021/06/14 09:33:26;;;;;;;2.90;2.25;;;;;;;;;;5073429;28;20106;-67
2021/06/14 09:35:53;;;;;;;7.72;2.85;;;;;;;;;;5073883;28;20076;-67
2021/06/14 09:38:20;;;;;;;6.63;2.30;;;;;;;;;;5072160;28;20152;-67
2021/06/14 09:40:52;;;;;;;4.93;2.50;;;;;;;;;;5072970;28;20056;-66
2021/06/14 09:43:28;;;;;;;3.90;1.75;;;;;;;;;;5073350;28;20044;-66
2021/06/14 09:45:55;;;;;;;4.85;2.03;;;;;;;;;;5073460;28;20605;-66
2021/06/14 09:48:24;;;;;;;3.10;1.70;;;;;;;;;;5073349;28;20079;-67
2021/06/14 09:50:52;;;;;;;4.82;1.85;;;;;;;;;;5073638;28;20044;-67
2021/06/14 09:53:21;;;;;;;4.18;2.10;;;;;;;;;;5072833;28;20388;-66
2021/06/14 09:55:49;;;;;;;3.72;1.73;;;;;;;;;;5073314;28;20059;-66
2021/06/14 09:58:24;;;;;;;1.90;1.52;;;;;;;;;;5073116;28;20087;-67
2021/06/14 10:00:57;;;;;;;3.10;1.75;;;;;;;;;;5073346;28;20048;-66
2021/06/14 10:03:27;;;;;;;2.65;2.05;;;;;;;;;;5072768;28;20550;-68
2021/06/14 10:05:56;;;;;;;5.22;1.77;;;;;;;;;;5072653;28;20094;-66
2021/06/14 10:08:30;;;;;;;3.90;1.75;;;;;;;;;;5072853;28;20102;-66
2021/06/14 10:11:08;;;;;;;3.97;1.95;;;;;;;;;;5072511;28;20083;-65
2021/06/14 10:13:37;;;;;;;2.85;1.60;;;;;;;;;;5072494;28;20095;-66
2021/06/14 10:16:07;;;;;;;5.70;1.60;;;;;;;;;;5072646;28;20514;-66
2021/06/14 10:18:37;;;;;;;3.35;1.85;;;;;;;;;;5052670;28;20151;-66
2021/06/14 10:21:05;;;;;;;3.90;1.60;;;;;;;;;;5052492;28;20131;-66
2021/06/14 10:23:32;;;;;;;3.97;1.90;;;;;;;;;;5052054;28;20099;-66
2021/06/14 10:26:00;;;;;;;3.03;1.70;;;;;;;;;;5052547;28;20491;-66
2021/06/14 10:28:28;;;;;;;3.30;1.73;;;;;;;;;;5053283;28;20092;-67
2021/06/14 10:30:55;;;;;;;2.40;1.52;;;;;;;;;;5072243;28;20140;-67
2021/06/14 10:33:26;;;;;;;3.55;1.90;;;;;;;;;;5072061;28;20122;-66
2021/06/14 10:35:54;;;;;;;3.72;1.75;;;;;;;;;;5072339;28;20085;-66
2021/06/14 10:38:27;;;;;;;3.78;1.80;;;;;;;;;;5072123;28;20158;-68
2021/06/14 10:40:53;;;;;;;3.45;1.55;;;;;;;;;;5070924;28;20040;-67
2021/06/14 10:43:24;;;;;;;3.45;1.92;;;;;;;;;;5072145;28;20541;-66
2021/06/14 10:45:51;;;;;;;4.45;2.20;;;;;;;;;;5071099;28;20095;-67
2021/06/14 10:48:23;;;;;;;2.30;1.50;;;;;;;;;;5054362;28;20106;-66
2021/06/14 10:51:01;;;;;;;5.43;1.92;;;;;;;;;;5070969;28;20052;-67
2021/06/14 10:53:31;;;;;;;4.00;1.80;;;;;;;;;;5071203;28;20048;-65
2021/06/14 10:56:01;;;;;;;2.05;1.80;;;;;;;;;;5072082;28;20063;-65
2021/06/14 10:58:32;;;;;;;3.00;1.85;;;;;;;;;;5071803;28;20052;-68
2021/06/14 11:01:08;;;;;;;4.55;2.28;;;;;;;;;;5072029;28;20052;-67
2021/06/14 11:03:45;;;;;;;3.28;1.70;;;;;;;;;;5071296;28;20048;-67
2021/06/14 11:06:18;;;;;;;3.83;1.85;;;;;;;;;;5069429;28;20049;-67
2021/06/14 11:09:05;;;;;;;2.60;1.45;;;;;;;;;;5069832;28;20416;-67
2021/06/14 11:11:43;;;;;;;3.30;1.80;;;;;;;;;;5069422;28;20048;-67
2021/06/14 11:14:10;;;;;;;3.33;1.80;;;;;;;;;;5069613;28;20048;-67
2021/06/14 11:16:38;;;;;;;3.63;1.75;;;;;;;;;;5068463;28;20464;-66
2021/06/14 11:19:07;;;;;;;4.45;1.50;;;;;;;;;;5069286;28;20045;-67
2021/06/14 11:21:34;;;;;;;3.13;1.95;;;;;;;;;;5069445;28;20427;-67
2021/06/14 11:24:10;;;;;;;2.63;1.52;;;;;;;;;;5067242;28;20057;-66
2021/06/14 11:26:38;;;;;;;2.47;1.45;;;;;;;;;;5069574;28;20177;-67
2021/06/14 11:29:16;;;;;;;3.65;1.67;;;;;;;;;;5069481;28;20578;-67
2021/06/14 11:32:02;;;;;;;4.07;1.70;;;;;;;;;;5068484;28;20491;-66
2021/06/14 11:34:39;;;;;;;2.95;1.60;;;;;;;;;;5069512;28;20095;-66
2021/06/14 11:37:06;;;;;;;3.40;2.03;;;;;;;;;;5070214;28;20487;-67
2021/06/14 11:39:33;;;;;;;1.92;1.60;;;;;;;;;;5071497;28;20083;-67
2021/06/14 11:42:18;;;;;;;5.22;1.73;;;;;;;;;;5071351;28;20045;-67
2021/06/14 11:44:58;;;;;;;5.47;1.73;;;;;;;;;;5071437;28;20060;-67
2021/06/14 11:47:29;;;;;;;2.22;1.55;;;;;;;;;;5067322;28;20553;-67
2021/06/14 11:50:00;;;;;;;4.43;1.58;;;;;;;;;;5055503;28;20488;-67
2021/06/14 11:52:34;;;;;;;3.05;1.95;;;;;;;;;;5058395;28;20044;-67
2021/06/14 11:55:07;;;;;;;2.33;1.85;;;;;;;;;;5051285;28;20103;-67
2021/06/14 11:57:36;;;;;;;2.38;1.77;;;;;;;;;;5051566;28;20118;-66
2021/06/14 12:00:37;;;;;;;2.33;1.50;;;;;;;;;;5092165;22;20044;-69
2021/06/14 12:03:20;;;;;;;2.95;1.42;;;;;;;;;;5070951;28;20079;-69
2021/06/14 12:05:47;;;;;;;3.10;1.60;;;;;;;;;;5070749;28;20470;-70
2021/06/14 12:08:18;;;;;;;2.90;1.40;;;;;;;;;;5071318;28;20087;-67
2021/06/14 12:10:45;;;;;;;2.50;1.57;;;;;;;;;;5071138;28;20049;-68
2021/06/14 12:13:25;;;;;;;1.73;1.40;;;;;;;;;;5070899;28;20477;-67
2021/06/14 12:15:54;;;;;;;2.85;1.90;;;;;;;;;;5071146;28;20095;-67
2021/06/14 12:18:21;;;;;;;2.75;1.50;;;;;;;;;;5064204;28;20040;-67
2021/06/14 12:21:05;;;;;;;4.57;1.55;;;;;;;;;;5051034;28;20053;-68
2021/06/14 12:23:34;;;;;;;4.50;1.40;;;;;;;;;;5050716;28;20077;-67
2021/06/14 12:26:03;;;;;;;2.55;1.33;;;;;;;;;;5051021;28;20102;-67
2021/06/14 12:28:32;;;;;;;3.40;1.63;;;;;;;;;;5034443;28;20076;-66
2021/06/14 12:31:05;;;;;;;3.15;1.90;;;;;;;;;;5055070;28;20128;-67
2021/06/14 12:33:34;;;;;;;2.92;1.65;;;;;;;;;;5065001;28;20073;-67
2021/06/14 12:36:03;;;;;;;3.60;1.65;;;;;;;;;;5054649;28;20053;-67
2021/06/14 12:38:30;;;;;;;4.65;2.05;;;;;;;;;;5054780;28;20059;-67
2021/06/14 12:40:57;;;;;;;3.55;1.40;;;;;;;;;;5054783;28;20131;-67
2021/06/14 12:43:24;;;;;;;2.25;1.35;;;;;;;;;;5054104;28;20049;-67
2021/06/14 12:45:54;;;;;;;2.67;2.00;;;;;;;;;;5054460;28;20045;-67
2021/06/14 12:48:21;;;;;;;1.92;1.40;;;;;;;;;;5054685;28;20095;-67
2021/06/14 12:50:52;;;;;;;2.15;1.27;;;;;;;;;;5054306;28;20080;-67
2021/06/14 12:53:24;;;;;;;3.40;1.52;;;;;;;;;;5053993;28;20049;-68
2021/06/14 12:55:53;;;;;;;3.63;1.83;;;;;;;;;;5054313;28;20052;-67
2021/06/14 12:58:21;;;;;;;2.42;1.30;;;;;;;;;;5054194;28;20085;-67
2021/06/14 13:00:59;;;;;;;2.20;1.58;;;;;;;;;;5054070;28;20089;-67
2021/06/14 13:03:29;;;;;;;3.25;1.50;;;;;;;;;;5067277;28;20049;-68
2021/06/14 13:05:56;;;;;;;3.78;1.20;;;;;;;;;;5051241;28;20076;-68
2021/06/14 13:08:37;;;;;;;5.30;1.48;;;;;;;;;;5058989;28;20316;-68
2021/06/14 13:11:07;;;;;;;2.00;1.38;;;;;;;;;;5062137;28;20045;-67
2021/06/14 13:13:36;;;;;;;3.97;1.40;;;;;;;;;;5058612;28;20417;-67
2021/06/14 13:16:09;;;;;;;1.65;1.10;;;;;;;;;;5047875;28;20389;-68
2021/06/14 13:18:37;;;;;;;2.83;1.60;;;;;;;;;;5025772;28;22655;-68
2021/06/14 13:21:12;;;;;;;2.28;1.20;;;;;;;;;;5053747;28;20049;-67
2021/06/14 13:23:47;;;;;;;1.75;1.02;;;;;;;;;;5053721;28;20052;-67
2021/06/14 13:26:15;;;;;;;2.05;1.15;;;;;;;;;;5053800;28;20068;-69
2021/06/14 13:28:43;;;;;;;2.17;1.10;;;;;;;;;;5053466;28;20115;-68
2021/06/14 13:31:20;;;;;;;2.78;1.40;;;;;;;;;;5066335;28;20392;-69
2021/06/14 13:34:11;;;;;;;1.65;1.10;;;;;;;;;;5057666;28;20049;-69
2021/06/14 13:36:42;;;;;;;1.55;1.10;;;;;;;;;;5063969;28;20052;-69
2021/06/14 13:39:13;;;;;;;4.85;1.85;;;;;;;;;;5066115;28;20048;-68
2021/06/14 13:41:40;;;;;;;2.22;1.38;;;;;;;;;;5055473;28;20103;-67
2021/06/14 13:44:09;;;;;;;1.88;1.00;;;;;;;;;;5046625;28;20053;-68
2021/06/14 13:46:41;;;;;;;1.30;1.13;;;;;;;;;;5037042;28;20106;-68
2021/06/14 13:49:09;;;;;;;1.77;1.20;;;;;;;;;;5045823;28;20044;-66
2021/06/14 13:51:35;;;;;;;2.70;1.23;;;;;;;;;;5039869;28;20511;-67
2021/06/14 13:54:03;;;;;;;2.65;1.10;;;;;;;;;;5030561;28;20085;-69
2021/06/14 13:56:51;;;;;;;1.15;1.08;;;;;;;;;;5041825;28;20123;-68
2021/06/14 13:59:25;;;;;;;1.15;1.02;;;;;;;;;;5040465;28;20084;-69
2021/06/14 14:01:55;;;;;;;1.52;0.90;;;;;;;;;;5038938;28;20079;-69
2021/06/14 14:04:26;;;;;;;3.50;1.20;;;;;;;;;;5041733;28;20132;-68
2021/06/14 14:06:53;;;;;;;2.47;1.00;;;;;;;;;;5044685;28;20044;-68
2021/06/14 14:09:21;;;;;;;3.40;1.10;;;;;;;;;;5048044;28;20072;-68
2021/06/14 14:11:49;;;;;;;2.22;1.27;;;;;;;;;;5031512;28;20088;-68
2021/06/14 14:14:17;;;;;;;4.97;1.52;;;;;;;;;;5048969;28;20514;-68
2021/06/14 14:16:45;;;;;;;3.42;1.25;;;;;;;;;;5050660;28;20122;-68
2021/06/14 14:19:21;;;;;;;2.25;1.30;;;;;;;;;;5046796;28;20045;-68
2021/06/14 14:21:48;;;;;;;2.55;1.17;;;;;;;;;;5045927;28;20106;-68
2021/06/14 14:24:16;;;;;;;1.83;1.30;;;;;;;;;;5041749;28;20080;-67
2021/06/14 14:26:44;;;;;;;2.75;1.30;;;;;;;;;;5043569;28;20057;-67
2021/06/14 14:29:33;;;;;;;2.03;1.20;;;;;;;;;;5044911;28;20507;-67
2021/06/14 14:32:02;;;;;;;3.47;1.33;;;;;;;;;;5025743;28;20045;-67
2021/06/14 14:34:44;;;;;;;5.10;1.40;;;;;;;;;;5019756;28;20046;-68
2021/06/14 14:37:39;;;;;;;2.58;1.40;;;;;;;;;;5030908;28;20052;-68
2021/06/14 14:40:14;;;;;;;1.40;1.10;;;;;;;;;;5017127;28;20456;-67
2021/06/14 14:42:42;;;;;;;2.65;1.48;;;;;;;;;;5041422;28;20085;-69
2021/06/14 14:45:10;;;;;;;5.78;1.42;;;;;;;;;;5037334;28;20073;-67
2021/06/14 14:47:37;;;;;;;3.17;1.95;;;;;;;;;;5022072;28;20561;-68
2021/06/14 14:50:04;;;;;;;1.20;1.05;;;;;;;;;;5037536;28;20072;-68
2021/06/14 14:52:30;;;;;;;2.97;1.48;;;;;;;;;;5043171;28;20041;-68
2021/06/14 14:54:57;;;;;;;2.53;1.40;;;;;;;;;;5020165;28;20136;-68
2021/06/14 14:57:23;;;;;;;1.80;1.23;;;;;;;;;;5038607;28;20088;-68
2021/06/14 14:59:50;;;;;;;3.10;1.85;;;;;;;;;;5039433;28;20073;-66
2021/06/14 15:02:17;;;;;;;4.13;1.95;;;;;;;;;;5039397;28;20061;-66
2021/06/14 15:04:45;;;;;;;2.05;1.20;;;;;;;;;;5016806;28;20095;-68